»·PEaware :: UAL410 KSMF-KDEN

UAL410 :: KSMF-KDEN

FLIGHT INFORMATION

Flight Status: Arrived
Operator:
United Airlines
More flights by this operator :: More flights under this callsign
Pilot: Andre N. (13929)
Aircraft: AIRBUS A320
(A320)
More flights by this aircraft type
Origin: KSMF Sacramento Intl
United States
Destination: KDEN Denver Intl
United States
More flights between these airports :: More routes between these airports
Route: SCTWN2 RALEY INSLO DTA J84 EKR FRNCH3
File this flight plan on PilotEdge
Remarks:
Altitude:
(Current/Filed)
39,000ft
Speed:
(Current/Filed)
450kts
Departed: 28-Feb-18 12:56 PM
Arrived: 28-Feb-18 02:58 PM
Distance/Time
Traveled:
788nm/2:02
Distance/Time
To Go:
Arrived

Flight Plot

Page will automatically refresh every two minutes.

Flight plan parsing failed; only flown route is shown


Map Options




Map Legend


Flown Route
Filed Route
Departure Airport
Arrival Airport
Navaid (VOR, NDB)
Fix

Horizontal Profiles

Position Reports

Time Latitude Longitude Heading Altitude Ground
Speed
28-Feb-18 12:35 38.696268 -121.594094 180 32ft 0kts
28-Feb-18 12:36 38.696268 -121.594094 180 32ft 0kts
28-Feb-18 12:37 38.696268 -121.594094 180 32ft 0kts
28-Feb-18 12:38 38.696268 -121.594094 180 32ft 0kts
28-Feb-18 12:39 38.696268 -121.594094 180 32ft 0kts
28-Feb-18 12:40 38.696268 -121.594094 180 32ft 0kts
28-Feb-18 12:41 38.696268 -121.594094 180 32ft 0kts
28-Feb-18 12:42 38.696268 -121.594094 180 32ft 0kts
28-Feb-18 12:43 38.696268 -121.594094 180 32ft 0kts
28-Feb-18 12:44 38.696268 -121.594094 180 32ft 0kts
28-Feb-18 12:45 38.696268 -121.594094 180 32ft 0kts
28-Feb-18 12:46 38.696268 -121.594094 180 32ft 0kts
28-Feb-18 12:47 38.696268 -121.594094 180 32ft 0kts
28-Feb-18 12:48 38.696268 -121.594094 180 32ft 0kts
28-Feb-18 12:49 38.696268 -121.594094 180 32ft 0kts
28-Feb-18 12:50 38.696268 -121.594094 180 32ft 0kts
28-Feb-18 12:51 38.696268 -121.594094 180 32ft 0kts
28-Feb-18 12:52 38.696284 -121.594094 180 32ft 1kts
28-Feb-18 12:53 38.696654 -121.594086 180 32ft 0kts
28-Feb-18 12:54 38.696654 -121.594086 180 32ft 0kts
28-Feb-18 12:55 38.696654 -121.594086 180 32ft 0kts
28-Feb-18 12:56 38.696654 -121.594086 180 32ft 0kts
28-Feb-18 12:57 38.696949 -121.592423 89 32ft 14kts
28-Feb-18 12:58 38.696894 -121.586277 90 32ft 19kts
28-Feb-18 12:59 38.698773 -121.582831 0 32ft 15kts
28-Feb-18 13:00 38.703784 -121.582752 0 32ft 20kts
28-Feb-18 13:01 38.707009 -121.581983 89 32ft 0kts
28-Feb-18 13:02 38.707011 -121.581389 90 32ft 9kts
28-Feb-18 13:03 38.694911 -121.580146 177 111ft 153kts
28-Feb-18 13:04 38.659402 -121.552460 112 3677ft 190kts
28-Feb-18 13:05 38.640997 -121.487936 113 7136ft 214kts
28-Feb-18 13:06 38.630244 -121.406152 86 9257ft 281kts
28-Feb-18 13:07 38.629877 -121.304520 89 11720ft 331kts
28-Feb-18 13:08 38.629199 -121.196648 89 13971ft 360kts
28-Feb-18 13:09 38.628381 -121.075695 88 16585ft 373kts
28-Feb-18 13:10 38.627297 -120.942731 88 18996ft 384kts
28-Feb-18 13:11 38.626011 -120.805632 89 20534ft 400kts
28-Feb-18 13:12 38.624514 -120.664880 89 22538ft 414kts
28-Feb-18 13:13 38.622820 -120.521114 89 24318ft 428kts
28-Feb-18 13:14 38.620848 -120.368773 89 25975ft 441kts
28-Feb-18 13:15 38.618676 -120.220519 90 27370ft 453kts
28-Feb-18 13:16 38.616198 -120.061926 90 28723ft 464kts
28-Feb-18 13:17 38.613440 -119.899454 90 29969ft 474kts
28-Feb-18 13:18 38.610359 -119.732140 90 31111ft 484kts
28-Feb-18 13:19 38.606947 -119.560420 89 32169ft 493kts
28-Feb-18 13:20 38.603230 -119.386262 89 33100ft 501kts
28-Feb-18 13:21 38.599382 -119.217339 90 34075ft 502kts
28-Feb-18 13:22 38.595113 -119.041179 90 35166ft 500kts
28-Feb-18 13:23 38.590598 -118.866059 89 36181ft 498kts
28-Feb-18 13:24 38.585825 -118.691092 89 37059ft 497kts
28-Feb-18 13:25 38.581635 -118.544895 89 37687ft 498kts
28-Feb-18 13:26 38.575533 -118.342428 90 38471ft 498kts
28-Feb-18 13:27 38.576338 -118.198646 78 38894ft 493kts
28-Feb-18 13:28 38.599918 -117.997790 78 39221ft 493kts
28-Feb-18 13:29 38.616490 -117.854467 78 39224ft 493kts
28-Feb-18 13:30 38.639419 -117.653613 78 39216ft 493kts
28-Feb-18 13:31 38.655578 -117.510173 78 39214ft 493kts
28-Feb-18 13:32 38.674393 -117.341061 78 39215ft 494kts
28-Feb-18 13:33 38.697941 -117.173769 75 39209ft 492kts
28-Feb-18 13:34 38.723477 -117.003209 75 39217ft 491kts
28-Feb-18 13:35 38.748787 -116.832428 74 39230ft 489kts
28-Feb-18 13:36 38.773714 -116.662282 75 39213ft 488kts
28-Feb-18 13:37 38.798413 -116.492701 74 39200ft 487kts
28-Feb-18 13:38 38.822514 -116.324752 75 39198ft 487kts
28-Feb-18 13:39 38.846375 -116.156696 75 39195ft 487kts
28-Feb-18 13:40 38.870232 -115.986931 75 39174ft 488kts
28-Feb-18 13:41 38.893745 -115.817761 75 39168ft 488kts
28-Feb-18 13:42 38.917151 -115.647483 75 39168ft 489kts
28-Feb-18 13:43 38.940263 -115.477450 75 39171ft 491kts
28-Feb-18 13:44 38.963061 -115.307796 76 39170ft 492kts
28-Feb-18 13:45 38.985668 -115.137517 76 39169ft 494kts
28-Feb-18 13:46 38.963138 -114.963328 82 39215ft 499kts
28-Feb-18 13:47 38.979799 -114.790169 77 39197ft 492kts
28-Feb-18 13:48 38.998351 -114.617493 77 39159ft 491kts
28-Feb-18 13:49 39.016646 -114.445304 77 39145ft 492kts
28-Feb-18 13:50 39.034303 -114.276799 77 39148ft 493kts
28-Feb-18 13:51 39.051971 -114.105772 77 39153ft 494kts
28-Feb-18 13:52 39.069578 -113.932858 77 39175ft 494kts
28-Feb-18 13:53 39.086880 -113.760292 77 39207ft 495kts
28-Feb-18 13:54 39.103485 -113.592250 78 39211ft 496kts
28-Feb-18 13:55 39.123074 -113.432885 69 39219ft 491kts
28-Feb-18 13:56 39.154136 -113.275416 70 39229ft 491kts
28-Feb-18 13:57 39.180051 -113.142746 70 39221ft 491kts
28-Feb-18 13:58 39.211282 -112.981770 70 39222ft 490kts
28-Feb-18 13:59 39.243681 -112.813425 70 39234ft 488kts
28-Feb-18 14:00 39.274348 -112.652770 70 39224ft 486kts
28-Feb-18 14:01 39.305881 -112.486195 70 39207ft 485kts
28-Feb-18 14:02 39.337027 -112.320274 71 39203ft 485kts
28-Feb-18 14:03 39.364470 -112.172901 71 39203ft 485kts
28-Feb-18 14:04 39.395041 -112.007403 71 39213ft 485kts
28-Feb-18 14:05 39.424992 -111.843883 71 39223ft 486kts
28-Feb-18 14:06 39.455327 -111.676818 71 39242ft 486kts
28-Feb-18 14:07 39.485152 -111.511139 71 39201ft 487kts
28-Feb-18 14:08 39.515097 -111.343307 72 39095ft 487kts
28-Feb-18 14:09 39.541869 -111.191981 72 39092ft 486kts
28-Feb-18 14:10 39.571246 -111.024502 72 39093ft 486kts
28-Feb-18 14:11 39.598348 -110.868623 73 39121ft 483kts
28-Feb-18 14:12 39.627132 -110.701643 73 39108ft 479kts
28-Feb-18 14:13 39.655713 -110.534274 73 39078ft 478kts
28-Feb-18 14:14 39.683714 -110.368794 73 39072ft 477kts
28-Feb-18 14:15 39.709431 -110.215443 74 39072ft 477kts
28-Feb-18 14:16 39.736058 -110.055273 74 39082ft 477kts
28-Feb-18 14:17 39.762395 -109.895403 74 39090ft 478kts
28-Feb-18 14:18 39.789754 -109.727758 74 39101ft 479kts
28-Feb-18 14:19 39.816668 -109.561262 74 39105ft 479kts
28-Feb-18 14:20 39.843494 -109.393701 74 39105ft 480kts
28-Feb-18 14:21 39.868815 -109.234011 75 39099ft 479kts
28-Feb-18 14:22 39.894680 -109.069323 76 39072ft 481kts
28-Feb-18 14:23 39.921046 -108.899724 76 39054ft 485kts
28-Feb-18 14:24 39.947230 -108.729606 77 39070ft 488kts
28-Feb-18 14:25 39.973333 -108.558264 77 39099ft 489kts
28-Feb-18 14:26 39.999034 -108.387789 77 39095ft 490kts
28-Feb-18 14:27 40.022978 -108.227331 77 39080ft 489kts
28-Feb-18 14:28 40.047863 -108.058851 77 39060ft 488kts
28-Feb-18 14:29 40.074946 -107.888230 73 39057ft 486kts
28-Feb-18 14:30 40.107780 -107.727037 73 39060ft 486kts
28-Feb-18 14:31 40.141048 -107.562237 73 39091ft 486kts
28-Feb-18 14:32 40.174641 -107.394521 73 39104ft 487kts
28-Feb-18 14:33 40.206841 -107.232466 73 39097ft 486kts
28-Feb-18 14:34 40.239071 -107.068939 73 39097ft 486kts
28-Feb-18 14:35 40.272160 -106.899669 75 39062ft 488kts
28-Feb-18 14:36 40.305309 -106.728595 75 38946ft 493kts
28-Feb-18 14:37 40.338415 -106.556342 76 36727ft 496kts
28-Feb-18 14:38 40.371117 -106.384667 75 34239ft 497kts
28-Feb-18 14:39 40.399498 -106.234564 76 32277ft 471kts
28-Feb-18 14:40 40.427759 -106.083722 76 30553ft 463kts
28-Feb-18 14:41 40.435067 -105.929049 103 28304ft 429kts
28-Feb-18 14:42 40.410923 -105.776693 102 25720ft 427kts
28-Feb-18 14:43 40.387588 -105.629373 102 22902ft 405kts
28-Feb-18 14:44 40.365245 -105.489642 101 20021ft 380kts
28-Feb-18 14:45 40.318097 -105.375878 131 17145ft 351kts
28-Feb-18 14:46 40.259039 -105.283312 131 15503ft 333kts
28-Feb-18 14:47 40.200934 -105.192367 131 14382ft 325kts
28-Feb-18 14:48 40.144951 -105.104920 130 14007ft 323kts
28-Feb-18 14:49 40.088974 -105.017653 129 13761ft 300kts
28-Feb-18 14:50 40.036145 -104.935523 127 13571ft 293kts
28-Feb-18 14:51 39.985442 -104.856876 127 13348ft 274kts
28-Feb-18 14:52 39.928177 -104.805097 179 12272ft 271kts
28-Feb-18 14:53 39.860918 -104.807086 179 11196ft 266kts
28-Feb-18 14:54 39.789873 -104.809273 179 10215ft 259kts
28-Feb-18 14:55 39.718790 -104.811145 179 9090ft 256kts
28-Feb-18 14:56 39.654184 -104.812672 179 9007ft 222kts
28-Feb-18 14:57 39.597682 -104.797729 119 8755ft 209kts
28-Feb-18 14:58 39.606411 -104.732756 60 8020ft 187kts
28-Feb-18 14:59 39.649134 -104.697506 28 7939ft 186kts
28-Feb-18 15:00 39.694928 -104.666206 22 7383ft 187kts
28-Feb-18 15:01 39.745935 -104.661558 1 7000ft 173kts
28-Feb-18 15:02 39.786369 -104.660859 1 6230ft 139kts
28-Feb-18 15:03 39.824604 -104.660529 1 5550ft 137kts
28-Feb-18 15:04 39.846844 -104.660355 349 5443ft 54kts
28-Feb-18 15:05 39.848974 -104.661306 321 5443ft 11kts
28-Feb-18 15:06 39.853658 -104.662256 0 5443ft 27kts
28-Feb-18 15:07 39.856644 -104.665601 259 5443ft 21kts
28-Feb-18 15:08 39.856826 -104.670494 311 5443ft 7kts
28-Feb-18 15:09 39.858076 -104.670681 0 5443ft 0kts

Navigation Log

Ident Type
Flight plan parsing failed, navigation log unavailable